createdAt,value
2018-10-09T00:00:27.821Z,91.22
2018-10-09T00:01:27.837Z,90.56
2018-10-09T00:02:27.853Z,91.13
2018-10-09T00:03:27.868Z,90.65
2018-10-09T00:04:27.882Z,91.60
2018-10-09T00:05:27.896Z,91.13
2018-10-09T00:06:27.911Z,91.31
2018-10-09T00:07:27.931Z,91.31
2018-10-09T00:08:27.942Z,92.18
2018-10-09T00:09:27.957Z,91.51
2018-10-09T00:10:27.975Z,90.46
2018-10-09T00:11:27.989Z,90.56
2018-10-09T00:12:28.005Z,91.89
2018-10-09T00:13:28.021Z,90.84
2018-10-09T00:14:28.035Z,90.84
2018-10-09T00:15:28.053Z,91.22
2018-10-09T00:16:28.068Z,91.13
2018-10-09T00:17:28.083Z,91.13
2018-10-09T00:18:28.100Z,90.46
2018-10-09T00:19:28.115Z,90.36
2018-10-09T00:20:28.129Z,90.65
2018-10-09T00:21:28.165Z,89.89
2018-10-09T00:22:28.161Z,89.79
2018-10-09T00:23:28.178Z,90.36
2018-10-09T00:24:28.193Z,89.98
2018-10-09T00:25:28.207Z,89.89
2018-10-09T00:26:28.224Z,90.08
2018-10-09T00:27:28.239Z,89.79
2018-10-09T00:28:28.258Z,90.17
2018-10-09T00:29:28.270Z,89.32
2018-10-09T00:30:28.283Z,89.89
2018-10-09T00:31:28.301Z,90.75
2018-10-09T00:32:28.316Z,90.94
2018-10-09T00:33:28.330Z,91.89
2018-10-09T00:34:28.348Z,91.70
2018-10-09T00:35:28.363Z,92.18
2018-10-09T00:36:28.379Z,92.27
2018-10-09T00:37:28.393Z,92.27
2018-10-09T00:38:28.409Z,91.60
2018-10-09T00:39:28.423Z,91.13
2018-10-09T00:40:28.438Z,90.17
2018-10-09T00:41:28.456Z,90.17
2018-10-09T00:42:28.473Z,90.27
2018-10-09T00:43:28.484Z,90.36
2018-10-09T00:44:28.500Z,90.27
2018-10-09T00:45:28.515Z,89.98
2018-10-09T00:46:28.531Z,90.27
2018-10-09T00:47:28.552Z,90.56
2018-10-09T00:48:28.564Z,89.98
2018-10-09T00:49:28.579Z,89.79
2018-10-09T00:50:28.598Z,89.79
2018-10-09T00:51:28.609Z,89.51
2018-10-09T00:52:28.623Z,89.98
2018-10-09T00:53:28.638Z,90.27
2018-10-09T00:54:28.655Z,90.94
2018-10-09T00:55:28.671Z,91.60
2018-10-09T00:56:28.685Z,92.08
2018-10-09T00:57:28.701Z,91.51
2018-10-09T00:58:28.718Z,92.74
2018-10-09T00:59:28.732Z,92.55
2018-10-09T01:00:28.747Z,93.60
2018-10-09T01:01:28.763Z,94.65
2018-10-09T01:02:28.779Z,94.79
2018-10-09T01:03:28.794Z,94.37
2018-10-09T01:04:28.811Z,94.27
2018-10-09T01:05:28.827Z,93.60
2018-10-09T01:06:28.839Z,93.18
2018-10-09T01:07:28.855Z,93.65
2018-10-09T01:08:28.871Z,93.65
2018-10-09T01:09:28.884Z,93.27
2018-10-09T01:10:28.901Z,93.13
2018-10-09T01:11:28.915Z,93.27
2018-10-09T01:12:28.935Z,93.46
2018-10-09T01:13:28.945Z,93.03
2018-10-09T01:14:28.961Z,92.65
2018-10-09T01:15:28.977Z,92.65
2018-10-09T01:16:28.991Z,92.51
2018-10-09T01:17:29.007Z,92.65
2018-10-09T01:18:29.026Z,92.74
2018-10-09T01:19:29.037Z,92.18
2018-10-09T01:20:29.056Z,92.18
2018-10-09T01:21:29.070Z,92.32
2018-10-09T01:22:29.083Z,92.13
2018-10-09T01:23:29.097Z,92.13
2018-10-09T01:24:29.113Z,92.46
2018-10-09T01:25:29.126Z,92.08
2018-10-09T01:26:29.143Z,92.18
2018-10-09T01:27:29.157Z,91.89
2018-10-09T01:28:29.174Z,91.84
2018-10-09T01:29:29.191Z,91.60
2018-10-09T01:30:29.202Z,91.51
2018-10-09T01:31:29.219Z,91.70
2018-10-09T01:32:29.234Z,91.41
2018-10-09T01:33:29.249Z,91.70
2018-10-09T01:34:29.267Z,91.41
2018-10-09T01:35:29.283Z,91.22
2018-10-09T01:36:29.296Z,91.51
2018-10-09T01:37:29.309Z,90.94
2018-10-09T01:38:29.327Z,91.31
2018-10-09T01:39:29.342Z,91.22
2018-10-09T01:40:29.364Z,91.31
2018-10-09T01:41:29.372Z,91.03
2018-10-09T01:42:29.386Z,91.13
2018-10-09T01:43:29.400Z,91.31
2018-10-09T01:44:29.418Z,91.60
2018-10-09T01:45:29.431Z,92.13
2018-10-09T01:46:29.449Z,92.27
2018-10-09T01:47:29.463Z,92.08
2018-10-09T01:48:29.477Z,92.41
2018-10-09T01:49:29.495Z,92.03
2018-10-09T01:50:29.508Z,92.51
2018-10-09T01:51:29.526Z,92.22
2018-10-09T01:52:29.541Z,92.36
2018-10-09T01:53:29.554Z,92.41
2018-10-09T01:54:29.569Z,91.41
2018-10-09T01:55:29.584Z,91.60
2018-10-09T01:56:29.608Z,91.65
2018-10-09T01:57:29.616Z,91.65
2018-10-09T01:58:29.630Z,90.99
2018-10-09T01:59:29.644Z,90.99
2018-10-09T02:00:29.660Z,90.99
2018-10-09T02:01:29.674Z,91.08
2018-10-09T02:02:29.727Z,89.75
2018-10-09T02:03:29.705Z,90.03
2018-10-09T02:04:29.721Z,90.51
2018-10-09T02:05:29.734Z,90.42
2018-10-09T02:06:29.756Z,89.94
2018-10-09T02:07:29.770Z,90.13
2018-10-09T02:08:29.787Z,89.84
2018-10-09T02:09:29.800Z,89.84
2018-10-09T02:10:29.814Z,89.84
2018-10-09T02:11:29.829Z,89.94
2018-10-09T02:12:29.843Z,89.27
2018-10-09T02:13:29.862Z,89.47
2018-10-09T02:14:29.873Z,89.27
2018-10-09T02:15:29.888Z,89.08
2018-10-09T02:16:29.905Z,89.08
2018-10-09T02:17:29.919Z,88.70
2018-10-09T02:18:29.936Z,87.94
2018-10-09T02:19:29.949Z,88.89
2018-10-09T02:20:29.963Z,88.79
2018-10-09T02:21:29.985Z,89.27
2018-10-09T02:22:29.995Z,88.04
2018-10-09T02:23:30.008Z,87.75
2018-10-09T02:24:30.025Z,88.32
2018-10-09T02:25:30.040Z,88.04
2018-10-09T02:26:30.056Z,87.94
2018-10-09T02:27:30.070Z,88.04
2018-10-09T02:28:30.088Z,87.94
2018-10-09T02:29:30.101Z,87.85
2018-10-09T02:30:30.114Z,87.85
2018-10-09T02:31:30.130Z,88.79
2018-10-09T02:32:30.147Z,88.70
2018-10-09T02:33:30.201Z,88.89
2018-10-09T02:34:30.178Z,89.27
2018-10-09T02:35:30.193Z,89.08
2018-10-09T02:36:30.206Z,88.89
2018-10-09T02:37:30.220Z,88.79
2018-10-09T02:38:30.236Z,88.60
2018-10-09T02:39:30.258Z,88.70
2018-10-09T02:40:30.265Z,88.79
2018-10-09T02:41:30.281Z,88.99
2018-10-09T02:42:30.298Z,88.99
2018-10-09T02:43:30.311Z,88.70
2018-10-09T02:44:30.330Z,88.89
2018-10-09T02:45:30.341Z,88.42
2018-10-09T02:46:30.354Z,88.89
2018-10-09T02:47:30.370Z,88.60
2018-10-09T02:48:30.388Z,88.42
2018-10-09T02:49:30.399Z,88.42
2018-10-09T02:50:30.416Z,87.94
2018-10-09T02:51:30.431Z,87.08
2018-10-09T02:52:30.444Z,87.75
2018-10-09T02:53:30.459Z,87.85
2018-10-09T02:54:30.473Z,87.94
2018-10-09T02:55:30.505Z,88.23
2018-10-09T02:56:30.503Z,88.04
2018-10-09T02:57:30.519Z,87.75
2018-10-09T02:58:30.534Z,87.37
2018-10-09T02:59:30.551Z,86.90
2018-10-09T03:00:30.565Z,86.70
2018-10-09T03:01:30.642Z,87.08
2018-10-09T03:02:30.595Z,86.70
2018-10-09T03:03:30.612Z,87.56
2018-10-09T03:04:30.628Z,88.13
2018-10-09T03:05:30.639Z,88.99
2018-10-09T03:06:30.651Z,88.79
2018-10-09T03:07:30.668Z,88.89
2018-10-09T03:08:30.719Z,89.65
2018-10-09T03:09:30.699Z,89.18
2018-10-09T03:10:30.711Z,89.65
2018-10-09T03:11:30.728Z,89.75
2018-10-09T03:12:30.744Z,89.94
2018-10-09T03:13:30.759Z,89.84
2018-10-09T03:14:30.773Z,89.75
2018-10-09T03:15:30.810Z,89.56
2018-10-09T03:16:30.802Z,89.75
2018-10-09T03:17:30.816Z,90.51
2018-10-09T03:18:30.830Z,91.27
2018-10-09T03:19:30.851Z,91.84
2018-10-09T03:20:30.908Z,91.08
2018-10-09T03:21:30.876Z,90.70
2018-10-09T03:22:30.890Z,90.51
2018-10-09T03:23:30.906Z,89.94
2018-10-09T03:24:30.920Z,89.56
2018-10-09T03:25:30.937Z,89.75
2018-10-09T03:26:30.952Z,89.56
2018-10-09T03:27:30.965Z,89.84
2018-10-09T03:28:30.979Z,89.84
2018-10-09T03:29:30.995Z,90.13
2018-10-09T03:30:31.011Z,89.94
2018-10-09T03:31:31.025Z,90.51
2018-10-09T03:32:31.040Z,90.51
2018-10-09T03:33:31.052Z,90.80
2018-10-09T03:34:31.066Z,91.27
2018-10-09T03:35:31.081Z,91.94
2018-10-09T03:36:31.098Z,91.84
2018-10-09T03:37:31.110Z,93.13
2018-10-09T03:38:31.128Z,93.65
2018-10-09T03:39:31.143Z,93.04
2018-10-09T03:40:31.155Z,93.79
2018-10-09T03:41:31.215Z,93.98
2018-10-09T03:42:31.188Z,94.18
2018-10-09T03:43:31.202Z,94.56
2018-10-09T03:44:31.212Z,94.03
2018-10-09T03:45:31.229Z,93.51
2018-10-09T03:46:31.243Z,93.37
2018-10-09T03:47:31.257Z,93.70
2018-10-09T03:48:31.271Z,93.32
2018-10-09T03:49:31.287Z,93.41
2018-10-09T03:50:31.300Z,93.41
2018-10-09T03:51:31.317Z,93.79
2018-10-09T03:52:31.329Z,94.18
2018-10-09T03:53:31.344Z,94.18
2018-10-09T03:54:31.362Z,93.65
2018-10-09T03:55:31.372Z,93.27
2018-10-09T03:56:31.388Z,92.65
2018-10-09T03:57:31.404Z,92.08
2018-10-09T03:58:31.417Z,92.41
2018-10-09T03:59:31.432Z,92.22
2018-10-09T04:00:31.446Z,91.70
2018-10-09T04:01:31.465Z,91.22
2018-10-09T04:02:31.475Z,91.03
2018-10-09T04:03:31.491Z,90.89
2018-10-09T04:04:31.516Z,90.37
2018-10-09T04:05:31.520Z,90.61
2018-10-09T04:06:31.535Z,89.84
2018-10-09T04:07:31.552Z,90.37
2018-10-09T04:08:31.563Z,91.99
2018-10-09T04:09:31.619Z,94.79
2018-10-09T04:10:31.593Z,96.46
2018-10-09T04:11:31.612Z,96.94
2018-10-09T04:12:31.665Z,97.60
2018-10-09T04:13:31.637Z,97.50
2018-10-09T04:14:31.651Z,97.50
2018-10-09T04:15:31.666Z,97.69
2018-10-09T04:16:31.682Z,98.36
2018-10-09T04:17:31.694Z,98.74
2018-10-09T04:18:31.710Z,98.55
2018-10-09T04:19:31.771Z,98.08
2018-10-09T04:20:31.737Z,98.55
2018-10-09T04:21:31.751Z,97.88
2018-10-09T04:22:31.769Z,97.69
2018-10-09T04:23:31.780Z,97.88
2018-10-09T04:24:31.797Z,97.31
2018-10-09T04:25:31.808Z,97.03
2018-10-09T04:26:31.825Z,96.84
2018-10-09T04:27:31.840Z,96.46
2018-10-09T04:28:31.853Z,97.13
2018-10-09T04:29:31.934Z,97.22
2018-10-09T04:30:31.882Z,97.31
2018-10-09T04:31:31.901Z,96.55
2018-10-09T04:32:31.913Z,97.13
2018-10-09T04:33:31.926Z,97.22
2018-10-09T04:34:31.939Z,97.88
2018-10-09T04:35:31.973Z,97.69
2018-10-09T04:36:31.969Z,97.69
2018-10-09T04:37:31.984Z,97.88
2018-10-09T04:38:31.996Z,97.41
2018-10-09T04:39:32.013Z,96.94
2018-10-09T04:40:32.025Z,96.55
2018-10-09T04:41:32.039Z,95.89
2018-10-09T04:42:32.055Z,95.51
2018-10-09T04:43:32.068Z,94.93
2018-10-09T04:44:32.085Z,95.41
2018-10-09T04:45:32.129Z,95.60
2018-10-09T04:46:32.111Z,95.22
2018-10-09T04:47:32.126Z,95.60
2018-10-09T04:48:32.142Z,96.08
2018-10-09T04:49:32.156Z,95.41
2018-10-09T04:50:32.169Z,96.17
2018-10-09T04:51:32.188Z,96.36
2018-10-09T04:52:32.204Z,96.08
2018-10-09T04:53:32.213Z,96.08
2018-10-09T04:54:32.229Z,96.36
2018-10-09T04:55:32.243Z,95.89
2018-10-09T04:56:32.260Z,96.26
2018-10-09T04:57:32.270Z,96.08
2018-10-09T04:58:32.286Z,96.08
2018-10-09T04:59:32.301Z,96.17
2018-10-09T05:00:32.322Z,95.41
2018-10-09T05:01:32.327Z,95.41
2018-10-09T05:02:32.343Z,94.84
2018-10-09T05:03:32.358Z,95.22
2018-10-09T05:04:32.372Z,95.22
2018-10-09T05:05:32.384Z,94.37
2018-10-09T05:06:32.402Z,94.27
2018-10-09T05:07:32.418Z,94.74
2018-10-09T05:08:32.430Z,94.18
2018-10-09T05:09:32.443Z,93.23
2018-10-09T05:10:32.459Z,92.94
2018-10-09T05:11:32.472Z,91.94
2018-10-09T05:12:32.489Z,92.08
2018-10-09T05:13:32.501Z,92.08
2018-10-09T05:14:32.517Z,91.51
2018-10-09T05:15:32.530Z,91.51
2018-10-09T05:16:32.545Z,91.61
2018-10-09T05:17:32.579Z,91.51
2018-10-09T05:18:32.572Z,92.08
2018-10-09T05:19:32.590Z,91.51
2018-10-09T05:20:32.603Z,91.32
2018-10-09T05:21:32.615Z,90.84
2018-10-09T05:22:32.630Z,90.94
2018-10-09T05:23:32.646Z,90.94
2018-10-09T05:24:32.665Z,90.08
2018-10-09T05:25:32.673Z,90.08
2018-10-09T05:26:32.690Z,91.03
2018-10-09T05:27:32.704Z,90.08
2018-10-09T05:28:32.719Z,90.08
2018-10-09T05:29:32.737Z,89.89
2018-10-09T05:30:32.747Z,90.37
2018-10-09T05:31:32.815Z,90.18
2018-10-09T05:32:32.777Z,90.28
2018-10-09T05:33:32.791Z,90.08
2018-10-09T05:34:32.810Z,89.42
2018-10-09T05:35:32.820Z,89.32
2018-10-09T05:36:32.835Z,88.85
2018-10-09T05:37:32.862Z,88.75
2018-10-09T05:38:32.862Z,88.66
2018-10-09T05:39:32.878Z,88.04
2018-10-09T05:40:32.893Z,88.18
2018-10-09T05:41:32.904Z,87.80
2018-10-09T05:42:32.920Z,88.09
2018-10-09T05:43:32.934Z,88.04
2018-10-09T05:44:32.990Z,88.51
2018-10-09T05:45:32.962Z,87.42
2018-10-09T05:46:32.977Z,87.04
2018-10-09T05:47:32.991Z,86.18
2018-10-09T05:48:33.006Z,86.09
2018-10-09T05:49:33.024Z,85.80
2018-10-09T05:50:33.038Z,85.85
2018-10-09T05:51:33.051Z,85.37
2018-10-09T05:52:33.111Z,83.81
2018-10-09T05:53:33.079Z,83.14
2018-10-09T05:54:33.093Z,82.32
2018-10-09T05:55:33.109Z,82.38
2018-10-09T05:56:33.124Z,82.90
2018-10-09T05:57:33.137Z,82.51
2018-10-09T05:58:33.151Z,83.62
2018-10-09T05:59:33.165Z,84.23
2018-10-09T06:00:33.180Z,84.47
2018-10-09T06:01:33.195Z,84.66
2018-10-09T06:02:33.214Z,84.28
2018-10-09T06:03:33.226Z,84.95
2018-10-09T06:04:33.241Z,87.04
2018-10-09T06:05:33.254Z,88.85
2018-10-09T06:06:33.269Z,88.85
2018-10-09T06:07:33.284Z,88.18
2018-10-09T06:08:33.296Z,87.13
2018-10-09T06:09:33.312Z,86.28
2018-10-09T06:10:33.328Z,86.57
2018-10-09T06:11:33.345Z,87.80
2018-10-09T06:12:33.355Z,87.52
2018-10-09T06:13:33.373Z,86.66
2018-10-09T06:14:33.390Z,86.90
2018-10-09T06:15:33.457Z,86.76
2018-10-09T06:16:33.413Z,86.18
2018-10-09T06:17:33.430Z,86.42
2018-10-09T06:18:33.442Z,85.99
2018-10-09T06:19:33.457Z,85.94
2018-10-09T06:20:33.473Z,85.99
2018-10-09T06:21:33.490Z,85.56
2018-10-09T06:22:33.502Z,85.61
2018-10-09T06:23:33.516Z,85.56
2018-10-09T06:24:33.533Z,85.85
2018-10-09T06:25:33.544Z,85.71
2018-10-09T06:26:33.557Z,85.61
2018-10-09T06:27:33.573Z,87.37
2018-10-09T06:28:33.714Z,88.09
2018-10-09T06:29:33.602Z,87.08
2018-10-09T06:30:33.620Z,85.75
2018-10-09T06:31:33.631Z,84.85
2018-10-09T06:32:33.646Z,83.90
2018-10-09T06:33:33.659Z,83.90
2018-10-09T06:34:33.676Z,83.47
2018-10-09T06:35:33.690Z,83.71
2018-10-09T06:36:33.704Z,83.85
2018-10-09T06:37:33.718Z,83.94
2018-10-09T06:38:33.733Z,83.85
2018-10-09T06:39:33.751Z,84.61
2018-10-09T06:40:33.785Z,84.80
2018-10-09T06:41:33.774Z,84.80
2018-10-09T06:42:33.847Z,84.42
2018-10-09T06:43:33.806Z,84.70
2018-10-09T06:44:33.822Z,84.23
2018-10-09T06:45:33.836Z,84.61
2018-10-09T06:46:33.850Z,84.89
2018-10-09T06:47:33.945Z,85.37
2018-10-09T06:48:33.881Z,86.42
2018-10-09T06:49:33.891Z,85.85
2018-10-09T06:50:33.907Z,86.04
2018-10-09T06:51:33.926Z,86.13
2018-10-09T06:52:33.938Z,86.99
2018-10-09T06:53:34.026Z,86.80
2018-10-09T06:54:34.059Z,87.37
2018-10-09T06:55:33.980Z,87.37
2018-10-09T06:56:33.995Z,87.18
2018-10-09T06:57:34.012Z,87.08
2018-10-09T06:58:34.023Z,87.18
2018-10-09T06:59:34.040Z,87.18
2018-10-09T07:00:34.053Z,87.85
2018-10-09T07:01:34.067Z,87.65
2018-10-09T07:02:34.084Z,87.56
2018-10-09T07:03:34.096Z,87.85
2018-10-09T07:04:34.112Z,88.04
2018-10-09T07:05:34.126Z,88.04
2018-10-09T07:06:34.141Z,87.85
2018-10-09T07:07:34.154Z,87.27
2018-10-09T07:08:34.169Z,86.61
2018-10-09T07:09:34.184Z,86.70
2018-10-09T07:10:34.197Z,86.51
2018-10-09T07:11:34.245Z,86.04
2018-10-09T07:12:34.229Z,86.42
2018-10-09T07:13:34.240Z,85.56
2018-10-09T07:14:34.256Z,85.37
2018-10-09T07:15:34.268Z,85.66
2018-10-09T07:16:34.285Z,85.37
2018-10-09T07:17:34.297Z,84.89
2018-10-09T07:18:34.313Z,84.42
2018-10-09T07:19:34.326Z,84.04
2018-10-09T07:20:34.344Z,85.51
2018-10-09T07:21:34.359Z,85.99
2018-10-09T07:22:34.380Z,85.70
2018-10-09T07:23:34.385Z,84.65
2018-10-09T07:24:34.401Z,85.70
2018-10-09T07:25:34.416Z,85.93
2018-10-09T07:26:34.430Z,84.79
2018-10-09T07:27:34.445Z,83.55
2018-10-09T07:28:34.458Z,81.84
2018-10-09T07:29:34.472Z,82.89
2018-10-09T07:30:34.490Z,79.74
2018-10-09T07:31:34.505Z,79.46
2018-10-09T07:32:34.518Z,80.07
2018-10-09T07:33:34.537Z,76.73
2018-10-09T07:34:34.548Z,76.82
2018-10-09T07:35:34.568Z,76.64
2018-10-09T07:36:34.579Z,76.64
2018-10-09T07:37:34.640Z,74.54
2018-10-09T07:38:34.607Z,74.06
2018-10-09T07:39:34.623Z,76.01
2018-10-09T07:40:34.636Z,73.62
2018-10-09T07:41:34.654Z,75.62
2018-10-09T07:42:34.666Z,75.62
2018-10-09T07:43:34.683Z,73.62
2018-10-09T07:44:34.698Z,72.96
2018-10-09T07:45:34.714Z,73.72
2018-10-09T07:46:34.730Z,71.23
2018-10-09T07:47:34.745Z,71.52
2018-10-09T07:48:34.765Z,71.72
2018-10-09T07:49:34.774Z,71.23
2018-10-09T07:50:34.788Z,70.67
2018-10-09T07:51:34.805Z,70.67
2018-10-09T07:52:34.822Z,70.00
2018-10-09T07:53:34.833Z,70.47
2018-10-09T07:54:34.856Z,69.62
2018-10-09T07:55:34.865Z,69.81
2018-10-09T07:56:34.882Z,71.52
2018-10-09T07:57:34.895Z,70.09
2018-10-09T07:58:34.925Z,70.47
2018-10-09T07:59:34.925Z,70.47
2018-10-09T08:00:34.942Z,70.86
2018-10-09T08:01:34.956Z,73.66
2018-10-09T08:02:34.973Z,71.46
2018-10-09T08:03:34.987Z,69.84
2018-10-09T08:04:35.044Z,69.84
2018-10-09T08:05:35.018Z,71.12
2018-10-09T08:06:35.033Z,70.36
2018-10-09T08:07:35.053Z,68.73
2018-10-09T08:08:35.064Z,69.82
2018-10-09T08:09:35.079Z,67.30
2018-10-09T08:10:35.204Z,67.30
2018-10-09T08:11:35.111Z,67.68
2018-10-09T08:12:35.130Z,68.73
2018-10-09T08:13:35.141Z,68.26
2018-10-09T08:14:35.159Z,66.92
2018-10-09T08:15:35.173Z,67.77
2018-10-09T08:16:35.188Z,66.82
2018-10-09T08:17:35.204Z,67.21
2018-10-09T08:18:35.221Z,66.72
2018-10-09T08:19:35.238Z,67.30
2018-10-09T08:20:35.252Z,66.25
2018-10-09T08:21:35.275Z,66.70
2018-10-09T08:22:35.351Z,64.28
2018-10-09T08:23:35.298Z,64.28
2018-10-09T08:24:35.318Z,64.28
2018-10-09T08:25:35.332Z,64.65
2018-10-09T08:26:35.347Z,64.75
2018-10-09T08:27:35.363Z,66.31
2018-10-09T08:28:35.381Z,65.07
2018-10-09T08:29:35.406Z,64.12
2018-10-09T08:30:35.409Z,63.26
2018-10-09T08:31:35.427Z,64.22
2018-10-09T08:32:35.442Z,63.10
2018-10-09T08:33:35.457Z,62.49
2018-10-09T08:34:35.576Z,62.40
2018-10-09T08:35:35.490Z,62.78
2018-10-09T08:36:35.505Z,63.39
2018-10-09T08:37:35.522Z,62.30
2018-10-09T08:38:35.539Z,63.10
2018-10-09T08:39:35.556Z,62.40
2018-10-09T08:40:35.571Z,62.87
2018-10-09T08:41:35.590Z,62.01
2018-10-09T08:42:35.603Z,62.11
2018-10-09T08:43:35.621Z,61.72
2018-10-09T08:44:35.638Z,62.08
2018-10-09T08:45:35.657Z,63.45
2018-10-09T08:46:35.671Z,62.78
2018-10-09T08:47:35.690Z,62.21
2018-10-09T08:48:35.711Z,62.11
2018-10-09T08:49:35.723Z,63.73
2018-10-09T08:50:35.735Z,62.97
2018-10-09T08:51:35.756Z,61.95
2018-10-09T08:52:35.780Z,61.06
2018-10-09T08:53:35.786Z,60.96
2018-10-09T08:54:35.804Z,62.14
2018-10-09T08:55:35.819Z,61.28
2018-10-09T08:56:35.838Z,61.09
2018-10-09T08:57:35.852Z,60.42
2018-10-09T08:58:35.870Z,61.09
2018-10-09T08:59:35.887Z,60.23
2018-10-09T09:00:35.905Z,59.27
2018-10-09T09:01:35.921Z,59.40
2018-10-09T09:02:35.941Z,58.66
2018-10-09T09:03:35.960Z,57.70
2018-10-09T09:04:35.972Z,58.54
2018-10-09T09:05:35.989Z,58.03
2018-10-09T09:06:36.006Z,59.20
2018-10-09T09:07:36.025Z,59.20
2018-10-09T09:08:36.041Z,58.06
2018-10-09T09:09:36.068Z,57.07
2018-10-09T09:10:36.077Z,58.80
2018-10-09T09:11:36.092Z,59.30
2018-10-09T09:12:36.110Z,59.01
2018-10-09T09:13:36.126Z,59.59
2018-10-09T09:14:36.142Z,57.87
2018-10-09T09:15:36.159Z,58.06
2018-10-09T09:16:36.177Z,57.87
2018-10-09T09:17:36.196Z,58.54
2018-10-09T09:18:36.212Z,57.87
2018-10-09T09:19:36.229Z,57.04
2018-10-09T09:20:36.335Z,56.17
2018-10-09T09:21:36.261Z,56.24
2018-10-09T09:22:36.284Z,56.53
2018-10-09T09:23:36.299Z,57.45
2018-10-09T09:24:36.315Z,56.30
2018-10-09T09:25:36.335Z,55.34
2018-10-09T09:26:36.402Z,54.26
2018-10-09T09:27:36.406Z,54.57
2018-10-09T09:28:36.388Z,55.44
2018-10-09T09:29:36.404Z,54.60
2018-10-09T09:30:36.433Z,53.93
2018-10-09T09:31:36.440Z,53.96
2018-10-09T09:32:36.457Z,51.85
2018-10-09T09:33:36.475Z,51.63
2018-10-09T09:34:36.491Z,51.82
2018-10-09T09:35:36.518Z,52.11
2018-10-09T09:36:36.533Z,52.69
2018-10-09T09:37:36.546Z,52.47
2018-10-09T09:38:36.565Z,53.64
2018-10-09T09:39:36.583Z,52.20
2018-10-09T09:40:36.600Z,52.71
2018-10-09T09:41:36.620Z,52.62
2018-10-09T09:42:36.639Z,51.75
2018-10-09T09:43:36.657Z,51.75
2018-10-09T09:44:36.676Z,50.87
2018-10-09T09:45:36.694Z,51.25
2018-10-09T09:46:36.711Z,51.65
2018-10-09T09:47:36.729Z,50.82
2018-10-09T09:48:36.761Z,50.12
2018-10-09T09:49:36.766Z,51.65
2018-10-09T09:50:36.786Z,51.92
2018-10-09T09:51:36.806Z,53.09
2018-10-09T09:52:36.837Z,52.04
2018-10-09T09:53:36.842Z,51.10
2018-10-09T09:54:36.865Z,50.51
2018-10-09T09:55:36.880Z,50.89
2018-10-09T09:56:36.899Z,50.67
2018-10-09T09:57:36.916Z,51.73
2018-10-09T09:58:37.029Z,51.82
2018-10-09T09:59:36.955Z,51.63
2018-10-09T10:00:36.974Z,51.82
2018-10-09T10:01:36.993Z,52.69
2018-10-09T10:02:37.010Z,51.75
2018-10-09T10:03:37.102Z,51.28
2018-10-09T10:04:37.050Z,50.77
2018-10-09T10:05:37.067Z,51.37
2018-10-09T10:06:37.087Z,51.25
2018-10-09T10:07:37.106Z,50.89
2018-10-09T10:08:37.130Z,50.87
2018-10-09T10:09:37.149Z,51.18
2018-10-09T10:10:37.165Z,51.78
2018-10-09T10:11:37.181Z,50.51
2018-10-09T10:12:37.201Z,50.58
2018-10-09T10:13:37.219Z,50.99
2018-10-09T10:14:37.238Z,51.01
2018-10-09T10:15:37.307Z,49.88
2018-10-09T10:16:37.279Z,48.61
2018-10-09T10:17:37.302Z,49.16
2018-10-09T10:18:37.316Z,49.84
2018-10-09T10:19:37.336Z,50.12
2018-10-09T10:20:37.358Z,50.43
2018-10-09T10:21:37.376Z,48.97
2018-10-09T10:22:37.397Z,50.12
2018-10-09T10:23:37.416Z,50.15
2018-10-09T10:24:37.434Z,49.14
2018-10-09T10:25:37.452Z,50.65
2018-10-09T10:26:37.474Z,51.44
2018-10-09T10:27:37.493Z,51.73
2018-10-09T10:28:37.522Z,50.63
2018-10-09T10:29:37.536Z,49.48
2018-10-09T10:30:37.551Z,48.69
2018-10-09T10:31:37.571Z,49.07
2018-10-09T10:32:37.592Z,48.71
2018-10-09T10:33:37.610Z,48.13
2018-10-09T10:34:37.631Z,48.93
2018-10-09T10:35:37.682Z,48.07
2018-10-09T10:36:37.704Z,47.68
2018-10-09T10:37:37.688Z,47.87
2018-10-09T10:38:37.709Z,47.01
2018-10-09T10:39:37.731Z,47.30
2018-10-09T10:40:37.753Z,47.77
2018-10-09T10:41:37.773Z,48.38
2018-10-09T10:42:37.792Z,48.16
2018-10-09T10:43:37.809Z,47.17
2018-10-09T10:44:37.832Z,47.75
2018-10-09T10:45:37.854Z,49.07
2018-10-09T10:46:37.868Z,49.84
2018-10-09T10:47:37.891Z,50.63
2018-10-09T10:48:37.911Z,49.50
2018-10-09T10:49:37.930Z,48.69
2018-10-09T10:50:37.949Z,46.94
2018-10-09T10:51:37.968Z,46.45
2018-10-09T10:52:37.989Z,46.00
2018-10-09T10:53:38.009Z,44.17
2018-10-09T10:54:38.029Z,44.90
2018-10-09T10:55:38.048Z,46.24
2018-10-09T10:56:38.070Z,45.76
2018-10-09T10:57:38.091Z,45.47
2018-10-09T10:58:38.111Z,46.05
2018-10-09T10:59:38.133Z,45.88
2018-10-09T11:00:38.149Z,45.28
2018-10-09T11:01:38.224Z,46.03
2018-10-09T11:02:38.191Z,47.39
2018-10-09T11:03:38.212Z,46.62
2018-10-09T11:04:38.233Z,45.86
2018-10-09T11:05:38.256Z,46.17
2018-10-09T11:06:38.274Z,45.01
2018-10-09T11:07:38.297Z,44.90
2018-10-09T11:08:38.312Z,47.10
2018-10-09T11:09:38.330Z,47.13
2018-10-09T11:10:38.351Z,46.19
2018-10-09T11:11:38.373Z,44.96
2018-10-09T11:12:38.398Z,43.45
2018-10-09T11:13:38.415Z,42.77
2018-10-09T11:14:38.442Z,42.35
2018-10-09T11:15:38.455Z,42.13
2018-10-09T11:16:38.475Z,43.00
2018-10-09T11:17:38.493Z,43.38
2018-10-09T11:18:38.516Z,44.23
2018-10-09T11:19:38.537Z,45.09
2018-10-09T11:20:38.558Z,45.64
2018-10-09T11:21:38.597Z,45.76
2018-10-09T11:22:38.601Z,45.78
2018-10-09T11:23:38.619Z,44.27
2018-10-09T11:24:38.639Z,43.23
2018-10-09T11:25:38.659Z,41.70
2018-10-09T11:26:38.683Z,42.27
2018-10-09T11:27:38.702Z,43.02
2018-10-09T11:28:38.721Z,43.57
2018-10-09T11:29:38.741Z,45.90
2018-10-09T11:30:38.768Z,43.87
2018-10-09T11:31:38.787Z,44.80
2018-10-09T11:32:38.860Z,46.19
2018-10-09T11:33:38.827Z,46.43
2018-10-09T11:34:38.845Z,45.16
2018-10-09T11:35:38.865Z,46.41
2018-10-09T11:36:38.886Z,45.00
2018-10-09T11:37:38.905Z,45.00
2018-10-09T11:38:38.926Z,44.76
2018-10-09T11:39:38.948Z,46.89
2018-10-09T11:40:38.969Z,46.81
2018-10-09T11:41:38.987Z,46.53
2018-10-09T11:42:39.075Z,45.52
2018-10-09T11:43:39.033Z,42.93
2018-10-09T11:44:39.048Z,42.83
2018-10-09T11:45:39.068Z,44.03
2018-10-09T11:46:39.088Z,46.05
2018-10-09T11:47:39.110Z,45.83
2018-10-09T11:48:39.128Z,45.64
2018-10-09T11:49:39.149Z,45.59
2018-10-09T11:50:39.171Z,45.00
2018-10-09T11:51:39.200Z,46.12
2018-10-09T11:52:39.211Z,47.08
2018-10-09T11:53:39.232Z,47.20
2018-10-09T11:54:39.252Z,46.31
2018-10-09T11:55:39.272Z,47.01
2018-10-09T11:56:39.294Z,45.95
2018-10-09T11:57:39.313Z,45.30
2018-10-09T11:58:39.366Z,45.23
2018-10-09T11:59:39.354Z,44.10
2018-10-09T12:00:39.377Z,43.43
2018-10-09T12:01:39.400Z,42.32
2018-10-09T12:02:39.425Z,40.61
2018-10-09T12:03:39.438Z,39.76
2018-10-09T12:04:39.459Z,37.81
2018-10-09T12:05:39.495Z,38.78
2018-10-09T12:06:39.497Z,38.59
2018-10-09T12:07:39.521Z,38.84
2018-10-09T12:08:39.541Z,40.39
2018-10-09T12:09:39.561Z,38.37
2018-10-09T12:10:39.587Z,38.09
2018-10-09T12:11:39.610Z,39.56
2018-10-09T12:12:39.626Z,41.41
2018-10-09T12:13:39.648Z,40.06
2018-10-09T12:14:39.670Z,41.79
2018-10-09T12:15:39.704Z,40.93
2018-10-09T12:16:39.712Z,41.94
2018-10-09T12:17:39.737Z,42.85
2018-10-09T12:18:39.758Z,41.22
2018-10-09T12:19:39.787Z,42.43
2018-10-09T12:20:39.799Z,43.88
2018-10-09T12:21:39.824Z,41.96
2018-10-09T12:22:39.843Z,41.20
2018-10-09T12:23:39.863Z,41.80
2018-10-09T12:24:39.885Z,45.00
2018-10-09T12:25:40.010Z,43.60
2018-10-09T12:26:39.927Z,41.79
2018-10-09T12:27:39.951Z,41.85
2018-10-09T12:28:39.971Z,42.81
2018-10-09T12:29:39.990Z,42.18
2018-10-09T12:30:40.013Z,41.96
2018-10-09T12:31:40.038Z,42.71
2018-10-09T12:32:40.055Z,41.37
2018-10-09T12:33:40.074Z,40.91
2018-10-09T12:34:40.096Z,39.47
2018-10-09T12:35:40.116Z,40.05
2018-10-09T12:36:40.138Z,41.60
2018-10-09T12:37:40.160Z,39.78
2018-10-09T12:38:40.181Z,40.06
2018-10-09T12:39:40.202Z,40.35
2018-10-09T12:40:40.221Z,40.64
2018-10-09T12:41:40.246Z,40.93
2018-10-09T12:42:40.265Z,38.95
2018-10-09T12:43:40.288Z,38.72
2018-10-09T12:44:40.307Z,39.99
2018-10-09T12:45:40.328Z,40.08
2018-10-09T12:46:40.349Z,39.51
2018-10-09T12:47:40.371Z,37.47
2018-10-09T12:48:40.394Z,37.95
2018-10-09T12:49:40.416Z,38.84
2018-10-09T12:50:40.434Z,38.62
2018-10-09T12:51:40.458Z,39.64
2018-10-09T12:52:40.478Z,40.14